ASN logo
ASN Wikibase Occurrence # 228608
Last updated: 12 October 2021
This information is added by users of ASN. Neither ASN nor the Flight Safety Foundation are responsible for the completeness or correctness of this information. If you feel this information is incomplete or incorrect, you can submit corrected information.

Date:26-MAY-2019
Time:13:25 LT
Type:Silhouette image of generic A310 model; specific model in this crash may look slightly different
Airbus A310-304
Owner/operator:Mahan Air
Registration: EP-MNV
MSN: 567
Fatalities:Fatalities: 0 / Occupants: 180
Other fatalities:0
Aircraft damage: Minor
Location:Yerevan-Zvartnots Airport -   Armenia
Phase: Landing
Nature:Passenger - Scheduled
Departure airport:Tehran-Imam Khomeini International Airport (IKA/OIIE)
Destination airport:Yerevan Airport (EVN/UDYZ)
Narrative:
Aircraft approached runway 09 of Yerevan International Airport as flight W5-1150 with a slight tailwind and high on the descent profile. After touch-down braking was insufficient and the aircraft overran the displaced (1,450m) threshold of runway 27, resulting in damage to two tyres and the approach lighting of runway 27. The available landing distance for runway 09 was 2,400m.

Weather about the incident time (0925Z):
UDYZ 260900Z 30003KT 270V350 9999 FEW040TCU 29/M01 Q1011 R09/000070 NOSIG
UDYZ 261000Z 29005KT 230V360 9999 FEW040 30/M02 Q1010 R09/000070 NOSIG

3.2 Probable causes:
The investigation of available evidences such as; crew statements, ATC communication, FDR data, site visit and airport CCTV observation; the Main Cause of incident was wrong perception of the flight crew regarding issued NOTAMs of displaced threshold of RWY27.
The Contributing Factors to the incident were:
1) Insufficient risk assessment for fligh t time planning between two international flights.
2) Lack of CRM about communication between cockpit crew and commanding Go around.
3) Cockpit crew failure to perform related approach briefing effectively.

Sources:

http://avherald.com/h?article=4c8bf4e2
https://www.flightradar24.com/data/flights/w51150#20a6bc74
https://www.cao.ir/web/english/investigation-reports?p_p_id=NetFormGetFile_WAR_NetForm&p_p_lifecycle=2&p_p_resource_id=getFile&_NetFormGetFile_WAR_NetForm_file=cUN0bzE4NXNHK09vcjc5dTJlTWpZNTVCQXZKSzl2RGtZVlBDNnVFV0d2ekpEc0F4Vks1WnNoc2VaZEhFMHhwaTRXRE5KVCtwT1kxMwpSY3B4WTRJMFlnPT0=.pdf


Images:

Photo of EP-MNV courtesy AirHistory.net


Düsseldorf - International (EDDL / DUS)
26 June 2015; (c) Streep

Revision history:

Date/timeContributorUpdates
30-Aug-2019 05:38 Edwin Added
30-Aug-2019 05:45 harro Updated [Location, Destination airport, Source, Narrative]
30-Aug-2019 08:45 Anon. Updated [Narrative]
25-May-2020 08:08 KagurazakaHanayo Updated [Total occupants, Departure airport, Source, Narrative]

Corrections or additions? ... Edit this accident description